sensor_id;sensor_type;location;lat;lon;timestamp;temperature;humidity
45535;DHT22;35892;48.798;9.698;2022-11-14T00:01:23;4.10;99.90
45535;DHT22;35892;48.798;9.698;2022-11-14T00:03:51;4.20;99.90
45535;DHT22;35892;48.798;9.698;2022-11-14T00:06:23;4.20;99.90
45535;DHT22;35892;48.798;9.698;2022-11-14T00:08:50;4.10;99.90
45535;DHT22;35892;48.798;9.698;2022-11-14T00:11:16;4.10;99.90
45535;DHT22;35892;48.798;9.698;2022-11-14T00:13:43;4.00;99.90
45535;DHT22;35892;48.798;9.698;2022-11-14T00:16:10;4.00;99.90
45535;DHT22;35892;48.798;9.698;2022-11-14T00:18:41;4.00;99.90
45535;DHT22;35892;48.798;9.698;2022-11-14T00:21:10;3.90;99.90
45535;DHT22;35892;48.798;9.698;2022-11-14T00:23:39;3.70;99.90
45535;DHT22;35892;48.798;9.698;2022-11-14T00:26:09;3.60;99.90
45535;DHT22;35892;48.798;9.698;2022-11-14T00:28:42;3.40;99.90
45535;DHT22;35892;48.798;9.698;2022-11-14T00:31:12;3.40;99.90
45535;DHT22;35892;48.798;9.698;2022-11-14T00:33:38;3.30;99.90
45535;DHT22;35892;48.798;9.698;2022-11-14T00:36:05;3.30;99.90
45535;DHT22;35892;48.798;9.698;2022-11-14T00:38:34;3.30;99.90
45535;DHT22;35892;48.798;9.698;2022-11-14T00:41:03;3.30;99.90
45535;DHT22;35892;48.798;9.698;2022-11-14T00:43:30;3.40;99.90
45535;DHT22;35892;48.798;9.698;2022-11-14T00:45:57;3.30;99.90
45535;DHT22;35892;48.798;9.698;2022-11-14T00:48:26;3.20;99.90
45535;DHT22;35892;48.798;9.698;2022-11-14T00:50:58;3.30;99.90
45535;DHT22;35892;48.798;9.698;2022-11-14T00:53:27;3.20;99.90
45535;DHT22;35892;48.798;9.698;2022-11-14T00:55:53;3.10;99.90
45535;DHT22;35892;48.798;9.698;2022-11-14T00:58:22;3.10;99.90
45535;DHT22;35892;48.798;9.698;2022-11-14T01:00:50;3.00;99.90
45535;DHT22;35892;48.798;9.698;2022-11-14T01:03:24;3.00;99.90
45535;DHT22;35892;48.798;9.698;2022-11-14T01:05:51;3.00;99.90
45535;DHT22;35892;48.798;9.698;2022-11-14T01:08:18;2.90;99.90
45535;DHT22;35892;48.798;9.698;2022-11-14T01:10:49;2.70;99.90
45535;DHT22;35892;48.798;9.698;2022-11-14T01:13:19;2.70;99.90
45535;DHT22;35892;48.798;9.698;2022-11-14T01:15:49;2.70;99.90
45535;DHT22;35892;48.798;9.698;2022-11-14T01:18:18;2.70;99.90
45535;DHT22;35892;48.798;9.698;2022-11-14T01:20:47;2.70;99.90
45535;DHT22;35892;48.798;9.698;2022-11-14T01:23:15;2.70;99.90
45535;DHT22;35892;48.798;9.698;2022-11-14T01:25:43;2.70;99.90
45535;DHT22;35892;48.798;9.698;2022-11-14T01:28:17;2.70;99.90
45535;DHT22;35892;48.798;9.698;2022-11-14T01:30:45;2.70;99.90
45535;DHT22;35892;48.798;9.698;2022-11-14T01:33:12;2.60;99.90
45535;DHT22;35892;48.798;9.698;2022-11-14T01:35:39;2.70;99.90
45535;DHT22;35892;48.798;9.698;2022-11-14T01:38:06;2.70;99.90
45535;DHT22;35892;48.798;9.698;2022-11-14T01:40:42;2.80;99.90
45535;DHT22;35892;48.798;9.698;2022-11-14T01:46:25;2.60;99.90
45535;DHT22;35892;48.798;9.698;2022-11-14T01:49:16;2.60;99.90
45535;DHT22;35892;48.798;9.698;2022-11-14T01:52:02;2.50;99.90
45535;DHT22;35892;48.798;9.698;2022-11-14T01:54:35;2.50;99.90
45535;DHT22;35892;48.798;9.698;2022-11-14T01:57:06;2.40;99.90
45535;DHT22;35892;48.798;9.698;2022-11-14T01:59:39;2.40;99.90
45535;DHT22;35892;48.798;9.698;2022-11-14T02:02:19;2.30;99.90
45535;DHT22;35892;48.798;9.698;2022-11-14T02:05:09;2.30;99.90
45535;DHT22;35892;48.798;9.698;2022-11-14T02:07:39;2.20;99.90
45535;DHT22;35892;48.798;9.698;2022-11-14T02:10:14;2.10;99.90
45535;DHT22;35892;48.798;9.698;2022-11-14T02:12:44;2.10;99.90
45535;DHT22;35892;48.798;9.698;2022-11-14T02:15:12;2.10;99.90
45535;DHT22;35892;48.798;9.698;2022-11-14T02:17:40;2.20;99.90
45535;DHT22;35892;48.798;9.698;2022-11-14T02:22:37;2.10;99.90
45535;DHT22;35892;48.798;9.698;2022-11-14T02:25:09;2.00;99.90
45535;DHT22;35892;48.798;9.698;2022-11-14T02:27:38;2.00;99.90
45535;DHT22;35892;48.798;9.698;2022-11-14T02:30:12;1.90;99.90
45535;DHT22;35892;48.798;9.698;2022-11-14T02:32:39;1.80;99.90
45535;DHT22;35892;48.798;9.698;2022-11-14T02:35:28;1.90;99.90
45535;DHT22;35892;48.798;9.698;2022-11-14T02:38:00;1.90;99.90
45535;DHT22;35892;48.798;9.698;2022-11-14T02:40:29;1.90;99.90
45535;DHT22;35892;48.798;9.698;2022-11-14T02:43:00;1.90;99.90
45535;DHT22;35892;48.798;9.698;2022-11-14T02:45:27;2.00;99.90
45535;DHT22;35892;48.798;9.698;2022-11-14T02:47:54;2.10;99.90
45535;DHT22;35892;48.798;9.698;2022-11-14T02:50:20;2.10;99.90
45535;DHT22;35892;48.798;9.698;2022-11-14T02:52:49;2.10;99.90
45535;DHT22;35892;48.798;9.698;2022-11-14T02:55:20;2.20;99.90
45535;DHT22;35892;48.798;9.698;2022-11-14T02:57:51;2.30;99.90
45535;DHT22;35892;48.798;9.698;2022-11-14T03:00:20;2.30;99.90
45535;DHT22;35892;48.798;9.698;2022-11-14T03:02:52;2.30;99.90
45535;DHT22;35892;48.798;9.698;2022-11-14T03:05:21;2.30;99.90
45535;DHT22;35892;48.798;9.698;2022-11-14T03:07:56;2.30;99.90
45535;DHT22;35892;48.798;9.698;2022-11-14T03:10:25;2.20;99.90
45535;DHT22;35892;48.798;9.698;2022-11-14T03:12:55;2.30;99.90
45535;DHT22;35892;48.798;9.698;2022-11-14T03:15:23;2.20;99.90
45535;DHT22;35892;48.798;9.698;2022-11-14T03:17:52;2.30;99.90
45535;DHT22;35892;48.798;9.698;2022-11-14T03:20:23;2.30;99.90
45535;DHT22;35892;48.798;9.698;2022-11-14T03:22:52;2.30;99.90
45535;DHT22;35892;48.798;9.698;2022-11-14T03:25:21;2.40;99.90
45535;DHT22;35892;48.798;9.698;2022-11-14T03:27:48;2.40;99.90
45535;DHT22;35892;48.798;9.698;2022-11-14T03:30:14;2.40;99.90
45535;DHT22;35892;48.798;9.698;2022-11-14T03:32:43;2.40;99.90
45535;DHT22;35892;48.798;9.698;2022-11-14T03:35:10;2.40;99.90
45535;DHT22;35892;48.798;9.698;2022-11-14T03:37:39;2.40;99.90
45535;DHT22;35892;48.798;9.698;2022-11-14T03:40:09;2.50;99.90
45535;DHT22;35892;48.798;9.698;2022-11-14T03:42:36;2.50;99.90
45535;DHT22;35892;48.798;9.698;2022-11-14T03:45:03;2.50;99.90
45535;DHT22;35892;48.798;9.698;2022-11-14T03:47:29;2.40;99.90
45535;DHT22;35892;48.798;9.698;2022-11-14T03:49:56;2.40;99.90
45535;DHT22;35892;48.798;9.698;2022-11-14T03:52:25;2.30;99.90
45535;DHT22;35892;48.798;9.698;2022-11-14T03:54:52;2.40;99.90
45535;DHT22;35892;48.798;9.698;2022-11-14T03:57:18;2.40;99.90
45535;DHT22;35892;48.798;9.698;2022-11-14T03:59:45;2.40;99.90
45535;DHT22;35892;48.798;9.698;2022-11-14T04:02:12;2.30;99.90
45535;DHT22;35892;48.798;9.698;2022-11-14T04:04:41;2.20;99.90
45535;DHT22;35892;48.798;9.698;2022-11-14T04:07:08;2.30;99.90
45535;DHT22;35892;48.798;9.698;2022-11-14T04:09:34;2.20;99.90
45535;DHT22;35892;48.798;9.698;2022-11-14T04:12:01;2.20;99.90
45535;DHT22;35892;48.798;9.698;2022-11-14T04:14:33;2.20;99.90
45535;DHT22;35892;48.798;9.698;2022-11-14T04:16:59;2.20;99.90
45535;DHT22;35892;48.798;9.698;2022-11-14T04:19:26;2.10;99.90
45535;DHT22;35892;48.798;9.698;2022-11-14T04:21:53;2.10;99.90
45535;DHT22;35892;48.798;9.698;2022-11-14T04:24:20;2.10;99.90
45535;DHT22;35892;48.798;9.698;2022-11-14T04:26:49;2.00;99.90
45535;DHT22;35892;48.798;9.698;2022-11-14T04:29:16;2.00;99.90
45535;DHT22;35892;48.798;9.698;2022-11-14T04:31:43;1.90;99.90
45535;DHT22;35892;48.798;9.698;2022-11-14T04:34:09;1.90;99.90
45535;DHT22;35892;48.798;9.698;2022-11-14T04:36:36;1.90;99.90
45535;DHT22;35892;48.798;9.698;2022-11-14T04:39:03;1.90;99.90
45535;DHT22;35892;48.798;9.698;2022-11-14T04:41:32;1.90;99.90
45535;DHT22;35892;48.798;9.698;2022-11-14T04:44:01;1.90;99.90
45535;DHT22;35892;48.798;9.698;2022-11-14T04:46:30;2.00;99.90
45535;DHT22;35892;48.798;9.698;2022-11-14T04:49:00;2.00;99.90
45535;DHT22;35892;48.798;9.698;2022-11-14T04:51:31;2.00;99.90
45535;DHT22;35892;48.798;9.698;2022-11-14T04:53:58;1.90;99.90
45535;DHT22;35892;48.798;9.698;2022-11-14T04:56:29;1.90;99.90
45535;DHT22;35892;48.798;9.698;2022-11-14T04:59:00;1.90;99.90
45535;DHT22;35892;48.798;9.698;2022-11-14T05:01:29;1.90;99.90
45535;DHT22;35892;48.798;9.698;2022-11-14T05:03:59;1.90;99.90
45535;DHT22;35892;48.798;9.698;2022-11-14T05:06:25;1.90;99.90
45535;DHT22;35892;48.798;9.698;2022-11-14T05:08:52;1.90;99.90
45535;DHT22;35892;48.798;9.698;2022-11-14T05:11:21;1.90;99.90
45535;DHT22;35892;48.798;9.698;2022-11-14T05:13:54;1.80;99.90
45535;DHT22;35892;48.798;9.698;2022-11-14T05:16:25;1.80;99.90
45535;DHT22;35892;48.798;9.698;2022-11-14T05:18:59;1.80;99.90
45535;DHT22;35892;48.798;9.698;2022-11-14T05:21:29;1.80;99.90
45535;DHT22;35892;48.798;9.698;2022-11-14T05:23:58;1.80;99.90
45535;DHT22;35892;48.798;9.698;2022-11-14T05:26:25;1.80;99.90
45535;DHT22;35892;48.798;9.698;2022-11-14T05:28:51;1.80;99.90
45535;DHT22;35892;48.798;9.698;2022-11-14T05:31:25;1.80;99.90
45535;DHT22;35892;48.798;9.698;2022-11-14T05:33:55;1.80;99.90
45535;DHT22;35892;48.798;9.698;2022-11-14T05:36:21;1.80;99.90
45535;DHT22;35892;48.798;9.698;2022-11-14T05:38:50;1.70;99.90
45535;DHT22;35892;48.798;9.698;2022-11-14T05:41:18;1.60;99.90
45535;DHT22;35892;48.798;9.698;2022-11-14T05:43:53;1.70;99.90
45535;DHT22;35892;48.798;9.698;2022-11-14T05:46:22;1.80;99.90
45535;DHT22;35892;48.798;9.698;2022-11-14T05:48:53;1.80;99.90
45535;DHT22;35892;48.798;9.698;2022-11-14T05:51:20;1.90;99.90
45535;DHT22;35892;48.798;9.698;2022-11-14T05:53:51;1.90;99.90
45535;DHT22;35892;48.798;9.698;2022-11-14T05:56:18;1.90;99.90
45535;DHT22;35892;48.798;9.698;2022-11-14T05:58:44;2.00;99.90
45535;DHT22;35892;48.798;9.698;2022-11-14T06:01:16;1.90;99.90
45535;DHT22;35892;48.798;9.698;2022-11-14T06:03:49;2.00;99.90
45535;DHT22;35892;48.798;9.698;2022-11-14T06:06:17;2.00;99.90
45535;DHT22;35892;48.798;9.698;2022-11-14T06:08:47;2.10;99.90
45535;DHT22;35892;48.798;9.698;2022-11-14T06:11:18;2.10;99.90
45535;DHT22;35892;48.798;9.698;2022-11-14T06:13:45;2.20;99.90
45535;DHT22;35892;48.798;9.698;2022-11-14T06:16:14;2.20;99.90
45535;DHT22;35892;48.798;9.698;2022-11-14T06:18:41;2.20;99.90
45535;DHT22;35892;48.798;9.698;2022-11-14T06:21:13;2.30;99.90
45535;DHT22;35892;48.798;9.698;2022-11-14T06:23:40;2.30;99.90
45535;DHT22;35892;48.798;9.698;2022-11-14T06:28:40;2.30;99.90
45535;DHT22;35892;48.798;9.698;2022-11-14T06:31:09;2.40;99.90
45535;DHT22;35892;48.798;9.698;2022-11-14T06:33:36;2.50;99.90
45535;DHT22;35892;48.798;9.698;2022-11-14T06:36:08;2.40;99.90
45535;DHT22;35892;48.798;9.698;2022-11-14T06:38:36;2.50;99.90
45535;DHT22;35892;48.798;9.698;2022-11-14T06:41:14;2.50;99.90
45535;DHT22;35892;48.798;9.698;2022-11-14T06:43:45;2.50;99.90
45535;DHT22;35892;48.798;9.698;2022-11-14T06:46:14;2.40;99.90
45535;DHT22;35892;48.798;9.698;2022-11-14T06:48:42;2.40;99.90
45535;DHT22;35892;48.798;9.698;2022-11-14T06:51:12;2.40;99.90
45535;DHT22;35892;48.798;9.698;2022-11-14T06:53:39;2.30;99.90
45535;DHT22;35892;48.798;9.698;2022-11-14T06:58:41;2.20;99.90
45535;DHT22;35892;48.798;9.698;2022-11-14T07:03:41;2.30;99.90
45535;DHT22;35892;48.798;9.698;2022-11-14T07:06:12;2.30;99.90
45535;DHT22;35892;48.798;9.698;2022-11-14T07:08:39;2.30;99.90
45535;DHT22;35892;48.798;9.698;2022-11-14T07:11:11;2.30;99.90
45535;DHT22;35892;48.798;9.698;2022-11-14T07:13:38;2.40;99.90
45535;DHT22;35892;48.798;9.698;2022-11-14T07:16:05;2.50;99.90
45535;DHT22;35892;48.798;9.698;2022-11-14T07:18:32;2.60;99.90
45535;DHT22;35892;48.798;9.698;2022-11-14T07:21:02;2.70;99.90
45535;DHT22;35892;48.798;9.698;2022-11-14T07:23:33;2.70;99.90
45535;DHT22;35892;48.798;9.698;2022-11-14T07:26:04;2.80;99.90
45535;DHT22;35892;48.798;9.698;2022-11-14T07:28:35;2.80;99.90
45535;DHT22;35892;48.798;9.698;2022-11-14T07:31:04;2.70;99.90
45535;DHT22;35892;48.798;9.698;2022-11-14T07:33:33;2.80;99.90
45535;DHT22;35892;48.798;9.698;2022-11-14T07:36:02;2.80;99.90
45535;DHT22;35892;48.798;9.698;2022-11-14T07:38:33;2.80;99.90
45535;DHT22;35892;48.798;9.698;2022-11-14T07:41:08;2.90;99.90
45535;DHT22;35892;48.798;9.698;2022-11-14T07:43:39;3.10;99.90
45535;DHT22;35892;48.798;9.698;2022-11-14T07:46:09;3.20;99.90
45535;DHT22;35892;48.798;9.698;2022-11-14T07:48:39;3.30;99.90
45535;DHT22;35892;48.798;9.698;2022-11-14T07:51:09;3.50;99.90
45535;DHT22;35892;48.798;9.698;2022-11-14T07:53:39;3.60;99.90
45535;DHT22;35892;48.798;9.698;2022-11-14T07:56:09;3.70;99.90
45535;DHT22;35892;48.798;9.698;2022-11-14T07:58:37;3.80;99.90
45535;DHT22;35892;48.798;9.698;2022-11-14T08:01:08;3.80;99.90
45535;DHT22;35892;48.798;9.698;2022-11-14T08:03:38;3.80;99.90
45535;DHT22;35892;48.798;9.698;2022-11-14T08:06:16;3.80;99.90
45535;DHT22;35892;48.798;9.698;2022-11-14T08:08:45;3.80;99.90
45535;DHT22;35892;48.798;9.698;2022-11-14T08:11:14;3.90;99.90
45535;DHT22;35892;48.798;9.698;2022-11-14T08:14:02;3.90;99.90
45535;DHT22;35892;48.798;9.698;2022-11-14T08:16:29;3.90;99.90
45535;DHT22;35892;48.798;9.698;2022-11-14T08:18:56;4.00;99.90
45535;DHT22;35892;48.798;9.698;2022-11-14T08:21:23;4.10;99.90
45535;DHT22;35892;48.798;9.698;2022-11-14T08:23:54;4.20;99.90
45535;DHT22;35892;48.798;9.698;2022-11-14T08:26:23;4.30;99.90
45535;DHT22;35892;48.798;9.698;2022-11-14T08:28:55;4.50;99.90
45535;DHT22;35892;48.798;9.698;2022-11-14T08:31:22;4.60;99.90
45535;DHT22;35892;48.798;9.698;2022-11-14T08:33:52;4.70;99.90
45535;DHT22;35892;48.798;9.698;2022-11-14T08:36:19;4.70;99.90
45535;DHT22;35892;48.798;9.698;2022-11-14T08:38:48;4.80;99.90
45535;DHT22;35892;48.798;9.698;2022-11-14T08:41:17;5.00;99.90
45535;DHT22;35892;48.798;9.698;2022-11-14T08:43:46;5.00;99.90
45535;DHT22;35892;48.798;9.698;2022-11-14T08:46:16;5.10;99.90
45535;DHT22;35892;48.798;9.698;2022-11-14T08:48:43;5.10;99.90
45535;DHT22;35892;48.798;9.698;2022-11-14T08:51:12;5.20;99.90
45535;DHT22;35892;48.798;9.698;2022-11-14T08:53:38;5.20;99.90
45535;DHT22;35892;48.798;9.698;2022-11-14T08:56:08;5.20;99.90
45535;DHT22;35892;48.798;9.698;2022-11-14T08:58:38;5.30;99.90
45535;DHT22;35892;48.798;9.698;2022-11-14T09:01:06;5.30;99.90
45535;DHT22;35892;48.798;9.698;2022-11-14T09:03:33;5.40;99.90
45535;DHT22;35892;48.798;9.698;2022-11-14T09:06:02;5.40;99.90
45535;DHT22;35892;48.798;9.698;2022-11-14T09:08:33;5.50;99.90
45535;DHT22;35892;48.798;9.698;2022-11-14T09:11:03;5.50;99.90
45535;DHT22;35892;48.798;9.698;2022-11-14T09:13:38;5.60;99.90
45535;DHT22;35892;48.798;9.698;2022-11-14T09:16:05;5.70;99.90
45535;DHT22;35892;48.798;9.698;2022-11-14T09:18:31;5.80;99.90
45535;DHT22;35892;48.798;9.698;2022-11-14T09:21:00;6.00;99.90
45535;DHT22;35892;48.798;9.698;2022-11-14T09:23:29;6.10;99.90
45535;DHT22;35892;48.798;9.698;2022-11-14T09:26:02;6.30;99.90
45535;DHT22;35892;48.798;9.698;2022-11-14T09:28:31;6.40;99.90
45535;DHT22;35892;48.798;9.698;2022-11-14T09:31:07;6.50;99.90
45535;DHT22;35892;48.798;9.698;2022-11-14T09:33:39;6.60;99.90
45535;DHT22;35892;48.798;9.698;2022-11-14T09:36:10;6.70;99.90
45535;DHT22;35892;48.798;9.698;2022-11-14T09:38:45;6.80;99.90
45535;DHT22;35892;48.798;9.698;2022-11-14T09:41:30;6.90;99.90
45535;DHT22;35892;48.798;9.698;2022-11-14T09:46:58;7.10;99.90
45535;DHT22;35892;48.798;9.698;2022-11-14T09:49:45;7.30;99.90
45535;DHT22;35892;48.798;9.698;2022-11-14T09:55:09;7.60;99.90
45535;DHT22;35892;48.798;9.698;2022-11-14T09:57:37;7.70;99.90
45535;DHT22;35892;48.798;9.698;2022-11-14T10:00:21;7.70;99.90
45535;DHT22;35892;48.798;9.698;2022-11-14T10:11:12;7.50;99.90
45535;DHT22;35892;48.798;9.698;2022-11-14T10:16:32;7.60;99.90
45535;DHT22;35892;48.798;9.698;2022-11-14T10:19:41;7.60;99.90
45535;DHT22;35892;48.798;9.698;2022-11-14T10:25:26;7.50;99.90
45535;DHT22;35892;48.798;9.698;2022-11-14T10:30:39;7.50;99.90
45535;DHT22;35892;48.798;9.698;2022-11-14T10:33:23;7.50;99.90
45535;DHT22;35892;48.798;9.698;2022-11-14T10:36:14;7.50;99.90
45535;DHT22;35892;48.798;9.698;2022-11-14T10:38:47;7.50;99.90
45535;DHT22;35892;48.798;9.698;2022-11-14T10:41:18;7.60;99.90
45535;DHT22;35892;48.798;9.698;2022-11-14T10:44:14;7.60;99.90
45535;DHT22;35892;48.798;9.698;2022-11-14T10:46:49;7.60;99.90
45535;DHT22;35892;48.798;9.698;2022-11-14T10:49:19;7.60;99.90
45535;DHT22;35892;48.798;9.698;2022-11-14T10:51:52;7.70;99.90
45535;DHT22;35892;48.798;9.698;2022-11-14T10:55:19;7.80;99.90
45535;DHT22;35892;48.798;9.698;2022-11-14T10:57:41;8.00;99.90
45535;DHT22;35892;48.798;9.698;2022-11-14T11:00:16;8.10;99.90
45535;DHT22;35892;48.798;9.698;2022-11-14T11:02:49;8.30;99.90
45535;DHT22;35892;48.798;9.698;2022-11-14T11:05:21;8.50;99.90
45535;DHT22;35892;48.798;9.698;2022-11-14T11:07:49;8.60;99.90
45535;DHT22;35892;48.798;9.698;2022-11-14T11:11:00;8.70;99.90
45535;DHT22;35892;48.798;9.698;2022-11-14T11:13:58;9.00;99.90
45535;DHT22;35892;48.798;9.698;2022-11-14T11:16:30;9.10;99.90
45535;DHT22;35892;48.798;9.698;2022-11-14T11:19:32;9.20;99.90
45535;DHT22;35892;48.798;9.698;2022-11-14T11:22:01;9.20;99.90
45535;DHT22;35892;48.798;9.698;2022-11-14T11:24:35;9.30;99.90
45535;DHT22;35892;48.798;9.698;2022-11-14T11:27:21;9.30;99.90
45535;DHT22;35892;48.798;9.698;2022-11-14T11:32:29;9.30;99.90
45535;DHT22;35892;48.798;9.698;2022-11-14T11:35:03;9.30;99.90
45535;DHT22;35892;48.798;9.698;2022-11-14T11:37:42;9.30;99.90
45535;DHT22;35892;48.798;9.698;2022-11-14T11:40:19;9.50;99.90
45535;DHT22;35892;48.798;9.698;2022-11-14T11:43:04;9.50;99.90
45535;DHT22;35892;48.798;9.698;2022-11-14T11:46:02;9.70;99.90
45535;DHT22;35892;48.798;9.698;2022-11-14T11:48:38;9.70;99.90
45535;DHT22;35892;48.798;9.698;2022-11-14T11:51:13;9.80;99.90
45535;DHT22;35892;48.798;9.698;2022-11-14T11:53:46;9.90;99.90
45535;DHT22;35892;48.798;9.698;2022-11-14T11:56:21;10.00;99.90
45535;DHT22;35892;48.798;9.698;2022-11-14T11:58:55;10.10;99.90
45535;DHT22;35892;48.798;9.698;2022-11-14T12:01:26;10.30;99.90
45535;DHT22;35892;48.798;9.698;2022-11-14T12:03:53;10.50;99.90
45535;DHT22;35892;48.798;9.698;2022-11-14T12:06:27;10.50;99.90
45535;DHT22;35892;48.798;9.698;2022-11-14T12:11:29;10.70;99.90
45535;DHT22;35892;48.798;9.698;2022-11-14T12:22:32;10.80;99.90
45535;DHT22;35892;48.798;9.698;2022-11-14T12:25:16;10.80;99.90
45535;DHT22;35892;48.798;9.698;2022-11-14T12:30:47;10.70;99.90
45535;DHT22;35892;48.798;9.698;2022-11-14T12:33:28;10.80;99.90
45535;DHT22;35892;48.798;9.698;2022-11-14T12:36:02;10.90;99.90
45535;DHT22;35892;48.798;9.698;2022-11-14T12:38:40;10.90;99.90
45535;DHT22;35892;48.798;9.698;2022-11-14T12:41:11;11.00;99.90
45535;DHT22;35892;48.798;9.698;2022-11-14T12:43:43;11.20;99.90
45535;DHT22;35892;48.798;9.698;2022-11-14T12:46:13;11.40;99.90
45535;DHT22;35892;48.798;9.698;2022-11-14T12:48:44;11.40;99.90
45535;DHT22;35892;48.798;9.698;2022-11-14T12:53:54;11.30;99.90
45535;DHT22;35892;48.798;9.698;2022-11-14T13:10:12;12.60;99.90
45535;DHT22;35892;48.798;9.698;2022-11-14T13:15:53;12.70;99.90
45535;DHT22;35892;48.798;9.698;2022-11-14T13:19:12;12.70;99.90
45535;DHT22;35892;48.798;9.698;2022-11-14T13:27:34;12.50;99.90
45535;DHT22;35892;48.798;9.698;2022-11-14T13:31:03;12.60;99.90
45535;DHT22;35892;48.798;9.698;2022-11-14T13:34:00;12.50;99.90
45535;DHT22;35892;48.798;9.698;2022-11-14T13:39:19;12.40;99.90
45535;DHT22;35892;48.798;9.698;2022-11-14T13:50:10;12.30;99.90
45535;DHT22;35892;48.798;9.698;2022-11-14T13:52:47;12.30;99.90
45535;DHT22;35892;48.798;9.698;2022-11-14T13:55:58;12.30;99.90
45535;DHT22;35892;48.798;9.698;2022-11-14T14:07:06;12.40;99.90
45535;DHT22;35892;48.798;9.698;2022-11-14T14:10:05;12.40;99.90
45535;DHT22;35892;48.798;9.698;2022-11-14T14:15:33;12.30;99.90
45535;DHT22;35892;48.798;9.698;2022-11-14T14:23:48;12.00;99.90
45535;DHT22;35892;48.798;9.698;2022-11-14T14:30:00;11.90;99.90
45535;DHT22;35892;48.798;9.698;2022-11-14T14:32:28;11.90;99.90
45535;DHT22;35892;48.798;9.698;2022-11-14T14:34:58;11.90;99.90
45535;DHT22;35892;48.798;9.698;2022-11-14T14:37:28;11.90;99.90
45535;DHT22;35892;48.798;9.698;2022-11-14T14:42:45;11.70;99.90
45535;DHT22;35892;48.798;9.698;2022-11-14T14:45:18;11.70;99.90
45535;DHT22;35892;48.798;9.698;2022-11-14T14:48:00;11.70;99.90
45535;DHT22;35892;48.798;9.698;2022-11-14T14:50:33;11.60;99.90
45535;DHT22;35892;48.798;9.698;2022-11-14T14:53:02;11.40;99.90
45535;DHT22;35892;48.798;9.698;2022-11-14T14:55:35;11.30;99.90
45535;DHT22;35892;48.798;9.698;2022-11-14T15:01:04;11.30;99.90
45535;DHT22;35892;48.798;9.698;2022-11-14T15:06:26;11.40;99.90
45535;DHT22;35892;48.798;9.698;2022-11-14T15:08:57;11.40;99.90
45535;DHT22;35892;48.798;9.698;2022-11-14T15:11:26;11.40;99.90
45535;DHT22;35892;48.798;9.698;2022-11-14T15:14:01;11.40;99.90
45535;DHT22;35892;48.798;9.698;2022-11-14T15:16:30;11.50;99.90
45535;DHT22;35892;48.798;9.698;2022-11-14T15:18:57;11.50;99.90
45535;DHT22;35892;48.798;9.698;2022-11-14T15:21:32;11.60;99.90
45535;DHT22;35892;48.798;9.698;2022-11-14T15:24:16;11.50;99.90
45535;DHT22;35892;48.798;9.698;2022-11-14T15:26:44;11.50;99.90
45535;DHT22;35892;48.798;9.698;2022-11-14T15:29:21;11.40;99.90
45535;DHT22;35892;48.798;9.698;2022-11-14T15:32:01;11.20;99.90
45535;DHT22;35892;48.798;9.698;2022-11-14T15:34:35;11.10;99.90
45535;DHT22;35892;48.798;9.698;2022-11-14T15:39:40;11.00;99.90
45535;DHT22;35892;48.798;9.698;2022-11-14T15:44:49;10.90;99.90
45535;DHT22;35892;48.798;9.698;2022-11-14T15:47:39;10.80;99.90
45535;DHT22;35892;48.798;9.698;2022-11-14T15:52:47;10.50;99.90
45535;DHT22;35892;48.798;9.698;2022-11-14T15:55:17;10.50;99.90
45535;DHT22;35892;48.798;9.698;2022-11-14T15:57:44;10.40;99.90
45535;DHT22;35892;48.798;9.698;2022-11-14T16:00:32;10.40;99.90
45535;DHT22;35892;48.798;9.698;2022-11-14T16:02:59;10.40;99.90
45535;DHT22;35892;48.798;9.698;2022-11-14T16:05:28;10.40;99.90
45535;DHT22;35892;48.798;9.698;2022-11-14T16:07:56;10.60;99.90
45535;DHT22;35892;48.798;9.698;2022-11-14T16:10:26;10.70;99.90
45535;DHT22;35892;48.798;9.698;2022-11-14T16:12:53;10.70;99.90
45535;DHT22;35892;48.798;9.698;2022-11-14T16:15:22;10.80;99.90
45535;DHT22;35892;48.798;9.698;2022-11-14T16:17:54;11.00;99.90
45535;DHT22;35892;48.798;9.698;2022-11-14T16:20:30;11.10;99.90
45535;DHT22;35892;48.798;9.698;2022-11-14T16:23:03;11.20;99.90
45535;DHT22;35892;48.798;9.698;2022-11-14T16:25:34;11.30;99.90
45535;DHT22;35892;48.798;9.698;2022-11-14T16:28:01;11.40;99.90
45535;DHT22;35892;48.798;9.698;2022-11-14T16:30:32;11.50;99.90
45535;DHT22;35892;48.798;9.698;2022-11-14T16:33:01;11.50;99.90
45535;DHT22;35892;48.798;9.698;2022-11-14T16:35:30;11.50;99.90
45535;DHT22;35892;48.798;9.698;2022-11-14T16:37:57;11.50;99.90
45535;DHT22;35892;48.798;9.698;2022-11-14T16:40:26;11.50;99.90
45535;DHT22;35892;48.798;9.698;2022-11-14T16:42:56;11.50;99.90
45535;DHT22;35892;48.798;9.698;2022-11-14T16:45:24;11.40;99.90
45535;DHT22;35892;48.798;9.698;2022-11-14T16:47:53;11.30;99.90
45535;DHT22;35892;48.798;9.698;2022-11-14T16:50:23;11.20;99.90
45535;DHT22;35892;48.798;9.698;2022-11-14T16:52:49;11.20;99.90
45535;DHT22;35892;48.798;9.698;2022-11-14T16:55:16;11.00;99.90
45535;DHT22;35892;48.798;9.698;2022-11-14T16:57:45;10.80;99.90
45535;DHT22;35892;48.798;9.698;2022-11-14T17:00:15;10.60;99.90
45535;DHT22;35892;48.798;9.698;2022-11-14T17:02:47;10.50;99.90
45535;DHT22;35892;48.798;9.698;2022-11-14T17:05:13;10.40;99.90
45535;DHT22;35892;48.798;9.698;2022-11-14T17:07:42;10.30;99.90
45535;DHT22;35892;48.798;9.698;2022-11-14T17:10:09;10.20;99.90
45535;DHT22;35892;48.798;9.698;2022-11-14T17:12:38;10.10;99.90
45535;DHT22;35892;48.798;9.698;2022-11-14T17:15:05;10.00;99.90
45535;DHT22;35892;48.798;9.698;2022-11-14T17:17:34;10.00;99.90
45535;DHT22;35892;48.798;9.698;2022-11-14T17:20:03;10.00;99.90
45535;DHT22;35892;48.798;9.698;2022-11-14T17:22:32;9.90;99.90
45535;DHT22;35892;48.798;9.698;2022-11-14T17:24:59;9.80;99.90
45535;DHT22;35892;48.798;9.698;2022-11-14T17:27:26;9.70;99.90
45535;DHT22;35892;48.798;9.698;2022-11-14T17:29:57;9.70;99.90
45535;DHT22;35892;48.798;9.698;2022-11-14T17:32:29;9.60;99.90
45535;DHT22;35892;48.798;9.698;2022-11-14T17:34:58;9.60;99.90
45535;DHT22;35892;48.798;9.698;2022-11-14T17:37:27;9.60;99.90
45535;DHT22;35892;48.798;9.698;2022-11-14T17:39:53;9.40;99.90
45535;DHT22;35892;48.798;9.698;2022-11-14T17:42:22;9.40;99.90
45535;DHT22;35892;48.798;9.698;2022-11-14T17:44:51;9.30;99.90
45535;DHT22;35892;48.798;9.698;2022-11-14T17:47:19;9.30;99.90
45535;DHT22;35892;48.798;9.698;2022-11-14T17:49:46;9.20;99.90
45535;DHT22;35892;48.798;9.698;2022-11-14T17:52:15;9.10;99.90
45535;DHT22;35892;48.798;9.698;2022-11-14T17:54:46;9.10;99.90
45535;DHT22;35892;48.798;9.698;2022-11-14T17:57:13;9.00;99.90
45535;DHT22;35892;48.798;9.698;2022-11-14T17:59:42;8.90;99.90
45535;DHT22;35892;48.798;9.698;2022-11-14T18:02:13;8.80;99.90
45535;DHT22;35892;48.798;9.698;2022-11-14T18:04:43;8.70;99.90
45535;DHT22;35892;48.798;9.698;2022-11-14T18:07:13;8.70;99.90
45535;DHT22;35892;48.798;9.698;2022-11-14T18:09:41;8.60;99.90
45535;DHT22;35892;48.798;9.698;2022-11-14T18:12:08;8.60;99.90
45535;DHT22;35892;48.798;9.698;2022-11-14T18:14:37;8.60;99.90
45535;DHT22;35892;48.798;9.698;2022-11-14T18:17:04;8.60;99.90